Woodstock, Minnesota
Current Conditions -  °F | °C
As of 3:54 PM on Friday 24 Oct 2014 (Local Time) from KPQN Reporting Station
Clear Clear  
Wind Chill: 73°   Ceiling: Unl
Heat Index: 73°   Visibility: 10mi
Dew Point: 36°   Wind: 12mph
Humidity: 25%   Direction: 300°WNW
Pressure: 29.89"   Gusts: NA
Location:  44.01°N, 96.1°W
Report Text: KPQN 242054Z AUTO 30010KT 10SM CLR 23/02 A2989 RMK AO2
Loading
Personal Weather Stations






























Interactive Weather Map
Tropical Storm Tracking
New forecast layout! Learn more

10-Day Weather Forecast

Advertisements
Track Severe Weather on mobile